sensor_id;sensor_type;location;lat;lon;timestamp;temperature;humidity
67893;DHT22;54688;52.376;16.744;2023-06-19T00:02:04;14;66.9
67893;DHT22;54688;52.376;16.744;2023-06-19T00:05:07;13.9;67.2
67893;DHT22;54688;52.376;16.744;2023-06-19T00:11:08;13.8;67.1
67893;DHT22;54688;52.376;16.744;2023-06-19T00:14:11;13.8;67.3
67893;DHT22;54688;52.376;16.744;2023-06-19T00:17:13;13.7;67.4
67893;DHT22;54688;52.376;16.744;2023-06-19T00:20:15;13.7;67.7
67893;DHT22;54688;52.376;16.744;2023-06-19T00:23:17;13.7;67.6
67893;DHT22;54688;52.376;16.744;2023-06-19T00:26:20;13.6;67.4
67893;DHT22;54688;52.376;16.744;2023-06-19T00:29:23;13.6;67.4
67893;DHT22;54688;52.376;16.744;2023-06-19T00:32:24;13.5;67.2
67893;DHT22;54688;52.376;16.744;2023-06-19T00:35:26;13.5;67.8
67893;DHT22;54688;52.376;16.744;2023-06-19T00:38:28;13.4;68.2
67893;DHT22;54688;52.376;16.744;2023-06-19T00:41:30;13.4;68.7
67893;DHT22;54688;52.376;16.744;2023-06-19T00:44:34;13.3;68.8
67893;DHT22;54688;52.376;16.744;2023-06-19T00:47:36;13.3;68.8
67893;DHT22;54688;52.376;16.744;2023-06-19T00:50:38;13.2;68.8
67893;DHT22;54688;52.376;16.744;2023-06-19T00:53:41;13.2;69.1
67893;DHT22;54688;52.376;16.744;2023-06-19T00:56:43;13.2;68.9
67893;DHT22;54688;52.376;16.744;2023-06-19T00:59:46;13.2;69.4
67893;DHT22;54688;52.376;16.744;2023-06-19T01:02:48;13.1;69.6
67893;DHT22;54688;52.376;16.744;2023-06-19T01:05:51;13.1;69.5
67893;DHT22;54688;52.376;16.744;2023-06-19T01:08:56;13.1;69.2
67893;DHT22;54688;52.376;16.744;2023-06-19T01:12:02;13;69.3
67893;DHT22;54688;52.376;16.744;2023-06-19T01:15:10;13;69.8
67893;DHT22;54688;52.376;16.744;2023-06-19T01:18:12;13;69.9
67893;DHT22;54688;52.376;16.744;2023-06-19T01:21:15;12.9;70.4
67893;DHT22;54688;52.376;16.744;2023-06-19T01:24:18;12.9;70.8
67893;DHT22;54688;52.376;16.744;2023-06-19T01:27:19;12.8;70.9
67893;DHT22;54688;52.376;16.744;2023-06-19T01:30:22;12.8;70.6
67893;DHT22;54688;52.376;16.744;2023-06-19T01:33:25;12.8;70.5
67893;DHT22;54688;52.376;16.744;2023-06-19T01:36:29;12.7;70.7
67893;DHT22;54688;52.376;16.744;2023-06-19T01:39:33;12.7;70.9
67893;DHT22;54688;52.376;16.744;2023-06-19T01:42:37;12.7;71.4
67893;DHT22;54688;52.376;16.744;2023-06-19T01:45:40;12.7;71.3
67893;DHT22;54688;52.376;16.744;2023-06-19T01:48:43;12.7;71.4
67893;DHT22;54688;52.376;16.744;2023-06-19T01:51:45;12.6;71.1
67893;DHT22;54688;52.376;16.744;2023-06-19T01:54:47;12.6;70.9
67893;DHT22;54688;52.376;16.744;2023-06-19T01:57:50;12.5;71.4
67893;DHT22;54688;52.376;16.744;2023-06-19T02:00:52;12.5;71.1
67893;DHT22;54688;52.376;16.744;2023-06-19T02:03:54;12.4;70.7
67893;DHT22;54688;52.376;16.744;2023-06-19T02:06:56;12.4;71
67893;DHT22;54688;52.376;16.744;2023-06-19T02:09:58;12.3;71.3
67893;DHT22;54688;52.376;16.744;2023-06-19T02:13:00;12.3;71.7
67893;DHT22;54688;52.376;16.744;2023-06-19T02:16:02;12.3;71.9
67893;DHT22;54688;52.376;16.744;2023-06-19T02:19:04;12.3;71.7
67893;DHT22;54688;52.376;16.744;2023-06-19T02:22:06;12.3;71.6
67893;DHT22;54688;52.376;16.744;2023-06-19T02:25:08;12.2;71.8
67893;DHT22;54688;52.376;16.744;2023-06-19T02:28:10;12.1;71.7
67893;DHT22;54688;52.376;16.744;2023-06-19T02:31:13;12.2;72.3
67893;DHT22;54688;52.376;16.744;2023-06-19T02:34:15;12.1;72
67893;DHT22;54688;52.376;16.744;2023-06-19T02:37:17;12;71.6
67893;DHT22;54688;52.376;16.744;2023-06-19T02:40:19;12;71.8
67893;DHT22;54688;52.376;16.744;2023-06-19T02:43:21;12;72.4
67893;DHT22;54688;52.376;16.744;2023-06-19T02:46:23;11.9;72.9
67893;DHT22;54688;52.376;16.744;2023-06-19T02:49:26;11.9;72.7
67893;DHT22;54688;52.376;16.744;2023-06-19T02:52:27;11.9;72.3
67893;DHT22;54688;52.376;16.744;2023-06-19T02:55:30;11.9;72.7
67893;DHT22;54688;52.376;16.744;2023-06-19T02:58:32;11.9;72.9
67893;DHT22;54688;52.376;16.744;2023-06-19T03:01:34;11.9;73
67893;DHT22;54688;52.376;16.744;2023-06-19T03:04:36;11.9;73.6
67893;DHT22;54688;52.376;16.744;2023-06-19T03:07:38;11.9;73.7
67893;DHT22;54688;52.376;16.744;2023-06-19T03:10:40;11.9;73.8
67893;DHT22;54688;52.376;16.744;2023-06-19T03:13:44;11.9;73.5
67893;DHT22;54688;52.376;16.744;2023-06-19T03:16:48;11.9;73.6
67893;DHT22;54688;52.376;16.744;2023-06-19T03:19:50;11.9;73.5
67893;DHT22;54688;52.376;16.744;2023-06-19T03:22:52;11.9;73.3
67893;DHT22;54688;52.376;16.744;2023-06-19T03:25:54;11.9;72.6
67893;DHT22;54688;52.376;16.744;2023-06-19T03:28:56;11.9;73
67893;DHT22;54688;52.376;16.744;2023-06-19T03:31:58;11.9;73.2
67893;DHT22;54688;52.376;16.744;2023-06-19T03:35:00;11.9;73.7
67893;DHT22;54688;52.376;16.744;2023-06-19T03:38:02;11.9;73
67893;DHT22;54688;52.376;16.744;2023-06-19T03:41:05;11.9;73
67893;DHT22;54688;52.376;16.744;2023-06-19T03:44:07;11.9;72.5
67893;DHT22;54688;52.376;16.744;2023-06-19T03:47:09;12;72.6
67893;DHT22;54688;52.376;16.744;2023-06-19T03:50:10;12;72.4
67893;DHT22;54688;52.376;16.744;2023-06-19T03:53:12;12;72
67893;DHT22;54688;52.376;16.744;2023-06-19T03:56:15;12;71.6
67893;DHT22;54688;52.376;16.744;2023-06-19T03:59:17;12;71.5
67893;DHT22;54688;52.376;16.744;2023-06-19T04:02:20;12;71.5
67893;DHT22;54688;52.376;16.744;2023-06-19T04:05:21;12;71.3
67893;DHT22;54688;52.376;16.744;2023-06-19T04:08:23;12.1;71.1
67893;DHT22;54688;52.376;16.744;2023-06-19T04:11:25;12.1;71.3
67893;DHT22;54688;52.376;16.744;2023-06-19T04:14:28;12.1;71.6
67893;DHT22;54688;52.376;16.744;2023-06-19T04:17:30;12.2;71.3
67893;DHT22;54688;52.376;16.744;2023-06-19T04:20:32;12.3;71.3
67893;DHT22;54688;52.376;16.744;2023-06-19T04:23:34;12.4;72.2
67893;DHT22;54688;52.376;16.744;2023-06-19T04:26:36;12.5;72.9
67893;DHT22;54688;52.376;16.744;2023-06-19T04:29:38;12.5;72.4
67893;DHT22;54688;52.376;16.744;2023-06-19T04:32:41;12.6;72.2
67893;DHT22;54688;52.376;16.744;2023-06-19T04:35:42;12.7;73.1
67893;DHT22;54688;52.376;16.744;2023-06-19T04:38:45;12.7;72.8
67893;DHT22;54688;52.376;16.744;2023-06-19T04:41:47;12.8;72.5
67893;DHT22;54688;52.376;16.744;2023-06-19T04:44:49;12.9;74.2
67893;DHT22;54688;52.376;16.744;2023-06-19T04:47:51;13.1;75.3
67893;DHT22;54688;52.376;16.744;2023-06-19T04:50:53;13.2;74.1
67893;DHT22;54688;52.376;16.744;2023-06-19T04:53:55;13.3;74.7
67893;DHT22;54688;52.376;16.744;2023-06-19T04:56:57;13.4;74.5
67893;DHT22;54688;52.376;16.744;2023-06-19T04:59:58;13.5;74.8
67893;DHT22;54688;52.376;16.744;2023-06-19T05:03:01;13.6;75.1
67893;DHT22;54688;52.376;16.744;2023-06-19T05:06:03;13.8;75.1
67893;DHT22;54688;52.376;16.744;2023-06-19T05:09:05;13.8;74.3
67893;DHT22;54688;52.376;16.744;2023-06-19T05:12:08;13.9;74.7
67893;DHT22;54688;52.376;16.744;2023-06-19T05:15:11;14;74.6
67893;DHT22;54688;52.376;16.744;2023-06-19T05:18:13;14.1;75.1
67893;DHT22;54688;52.376;16.744;2023-06-19T05:21:15;14.2;75.1
67893;DHT22;54688;52.376;16.744;2023-06-19T05:24:17;14.3;75.2
67893;DHT22;54688;52.376;16.744;2023-06-19T05:27:19;14.4;74.4
67893;DHT22;54688;52.376;16.744;2023-06-19T05:30:21;14.5;74.4
67893;DHT22;54688;52.376;16.744;2023-06-19T05:33:23;14.5;74.6
67893;DHT22;54688;52.376;16.744;2023-06-19T05:36:25;14.6;74.9
67893;DHT22;54688;52.376;16.744;2023-06-19T05:39:27;14.8;74.3
67893;DHT22;54688;52.376;16.744;2023-06-19T05:42:29;14.9;74.2
67893;DHT22;54688;52.376;16.744;2023-06-19T05:45:31;15;73.6
67893;DHT22;54688;52.376;16.744;2023-06-19T05:48:33;15.1;73.1
67893;DHT22;54688;52.376;16.744;2023-06-19T05:51:35;15.1;72.8
67893;DHT22;54688;52.376;16.744;2023-06-19T05:54:37;15.2;72.5
67893;DHT22;54688;52.376;16.744;2023-06-19T05:57:39;15.3;72.4
67893;DHT22;54688;52.376;16.744;2023-06-19T06:00:41;15.4;72.5
67893;DHT22;54688;52.376;16.744;2023-06-19T06:03:42;15.5;72.3
67893;DHT22;54688;52.376;16.744;2023-06-19T06:06:45;15.6;71.9
67893;DHT22;54688;52.376;16.744;2023-06-19T06:09:48;15.7;71.5
67893;DHT22;54688;52.376;16.744;2023-06-19T06:12:49;15.7;70.8
67893;DHT22;54688;52.376;16.744;2023-06-19T06:15:51;15.9;71.4
67893;DHT22;54688;52.376;16.744;2023-06-19T06:18:53;16;70.6
67893;DHT22;54688;52.376;16.744;2023-06-19T06:21:55;16.2;70.1
67893;DHT22;54688;52.376;16.744;2023-06-19T06:24:57;16.2;69.5
67893;DHT22;54688;52.376;16.744;2023-06-19T06:27:59;16.4;69.1
67893;DHT22;54688;52.376;16.744;2023-06-19T06:31:02;16.5;68.4
67893;DHT22;54688;52.376;16.744;2023-06-19T06:34:04;16.7;67.2
67893;DHT22;54688;52.376;16.744;2023-06-19T06:37:06;16.8;66.3
67893;DHT22;54688;52.376;16.744;2023-06-19T06:40:09;17.1;65.5
67893;DHT22;54688;52.376;16.744;2023-06-19T06:43:11;17.2;65.7
67893;DHT22;54688;52.376;16.744;2023-06-19T06:46:13;17.3;64.6
67893;DHT22;54688;52.376;16.744;2023-06-19T06:49:15;17.3;63.9
67893;DHT22;54688;52.376;16.744;2023-06-19T06:52:17;17.5;63.1
67893;DHT22;54688;52.376;16.744;2023-06-19T06:55:19;17.6;63.5
67893;DHT22;54688;52.376;16.744;2023-06-19T06:58:21;17.7;62.3
67893;DHT22;54688;52.376;16.744;2023-06-19T07:01:23;17.9;60.8
67893;DHT22;54688;52.376;16.744;2023-06-19T07:04:25;18;59.2
67893;DHT22;54688;52.376;16.744;2023-06-19T07:07:27;18.3;57.8
67893;DHT22;54688;52.376;16.744;2023-06-19T07:10:29;18.4;56
67893;DHT22;54688;52.376;16.744;2023-06-19T07:13:31;18.6;52
67893;DHT22;54688;52.376;16.744;2023-06-19T07:16:33;18.8;52.9
67893;DHT22;54688;52.376;16.744;2023-06-19T07:19:35;19;54.2
67893;DHT22;54688;52.376;16.744;2023-06-19T07:22:37;19.2;51.7
67893;DHT22;54688;52.376;16.744;2023-06-19T07:25:40;19.3;50.4
67893;DHT22;54688;52.376;16.744;2023-06-19T07:28:42;19.4;50.6
67893;DHT22;54688;52.376;16.744;2023-06-19T07:31:44;19.5;50.5
67893;DHT22;54688;52.376;16.744;2023-06-19T07:34:46;19.7;50.2
67893;DHT22;54688;52.376;16.744;2023-06-19T07:37:48;19.8;47.8
67893;DHT22;54688;52.376;16.744;2023-06-19T07:40:51;19.9;48.6
67893;DHT22;54688;52.376;16.744;2023-06-19T07:43:52;20.1;48.8
67893;DHT22;54688;52.376;16.744;2023-06-19T07:46:54;20.3;46.6
67893;DHT22;54688;52.376;16.744;2023-06-19T07:49:57;20.6;46.8
67893;DHT22;54688;52.376;16.744;2023-06-19T07:52:59;21;44.4
67893;DHT22;54688;52.376;16.744;2023-06-19T07:56:01;21.3;44.4
67893;DHT22;54688;52.376;16.744;2023-06-19T07:59:03;21.5;43.6
67893;DHT22;54688;52.376;16.744;2023-06-19T08:02:05;21.8;42.2
67893;DHT22;54688;52.376;16.744;2023-06-19T08:05:08;22;42.8
67893;DHT22;54688;52.376;16.744;2023-06-19T08:08:11;22.2;42.8
67893;DHT22;54688;52.376;16.744;2023-06-19T08:11:14;22.5;41.8
67893;DHT22;54688;52.376;16.744;2023-06-19T08:14:17;22.7;40.1
67893;DHT22;54688;52.376;16.744;2023-06-19T08:17:20;23;40.1
67893;DHT22;54688;52.376;16.744;2023-06-19T08:20:22;23.1;38.7
67893;DHT22;54688;52.376;16.744;2023-06-19T08:23:24;23.2;39.5
67893;DHT22;54688;52.376;16.744;2023-06-19T08:26:25;23.4;39.5
67893;DHT22;54688;52.376;16.744;2023-06-19T08:32:27;23.8;38
67893;DHT22;54688;52.376;16.744;2023-06-19T08:35:29;23.9;37.8
67893;DHT22;54688;52.376;16.744;2023-06-19T08:38:32;24;38.7
67893;DHT22;54688;52.376;16.744;2023-06-19T08:41:34;24.1;37.8
67893;DHT22;54688;52.376;16.744;2023-06-19T08:44:36;24.2;36
67893;DHT22;54688;52.376;16.744;2023-06-19T08:47:39;24.3;36.3
67893;DHT22;54688;52.376;16.744;2023-06-19T08:50:41;24.3;36.5
67893;DHT22;54688;52.376;16.744;2023-06-19T08:53:44;24.4;36.8
67893;DHT22;54688;52.376;16.744;2023-06-19T08:56:47;24.5;36.8
67893;DHT22;54688;52.376;16.744;2023-06-19T08:59:48;24.7;36.1
67893;DHT22;54688;52.376;16.744;2023-06-19T09:02:51;24.9;36
67893;DHT22;54688;52.376;16.744;2023-06-19T09:05:53;25;33.3
67893;DHT22;54688;52.376;16.744;2023-06-19T09:08:58;25.1;34.1
67893;DHT22;54688;52.376;16.744;2023-06-19T09:12:00;25.3;35
67893;DHT22;54688;52.376;16.744;2023-06-19T09:15:10;25.3;33.4
67893;DHT22;54688;52.376;16.744;2023-06-19T09:18:13;25.4;33.7
67893;DHT22;54688;52.376;16.744;2023-06-19T09:21:15;25.3;33
67893;DHT22;54688;52.376;16.744;2023-06-19T09:24:18;25.3;33.3
67893;DHT22;54688;52.376;16.744;2023-06-19T09:27:20;25.3;32.9
67893;DHT22;54688;52.376;16.744;2023-06-19T09:30:23;25.4;32.8
67893;DHT22;54688;52.376;16.744;2023-06-19T09:33:26;25.4;32.6
67893;DHT22;54688;52.376;16.744;2023-06-19T09:36:29;25.5;32.1
67893;DHT22;54688;52.376;16.744;2023-06-19T09:39:34;25.7;31.2
67893;DHT22;54688;52.376;16.744;2023-06-19T09:42:38;25.7;30.7
67893;DHT22;54688;52.376;16.744;2023-06-19T09:45:41;25.8;30.4
67893;DHT22;54688;52.376;16.744;2023-06-19T09:48:45;25.9;31
67893;DHT22;54688;52.376;16.744;2023-06-19T09:51:47;26.1;31.5
67893;DHT22;54688;52.376;16.744;2023-06-19T09:54:51;26.2;30.7
67893;DHT22;54688;52.376;16.744;2023-06-19T09:57:54;26.4;31.4
67893;DHT22;54688;52.376;16.744;2023-06-19T10:00:56;26.7;31.4
67893;DHT22;54688;52.376;16.744;2023-06-19T10:04:02;26.9;31.3
67893;DHT22;54688;52.376;16.744;2023-06-19T10:07:14;26.9;30.3
67893;DHT22;54688;52.376;16.744;2023-06-19T10:10:22;26.9;30.5
67893;DHT22;54688;52.376;16.744;2023-06-19T10:13:32;27.1;31.2
67893;DHT22;54688;52.376;16.744;2023-06-19T10:16:35;27.2;30.8
67893;DHT22;54688;52.376;16.744;2023-06-19T10:19:37;27.2;30
67893;DHT22;54688;52.376;16.744;2023-06-19T10:22:50;27.2;29.5
67893;DHT22;54688;52.376;16.744;2023-06-19T10:25:55;27.1;30.4
67893;DHT22;54688;52.376;16.744;2023-06-19T10:28:58;27.2;29
67893;DHT22;54688;52.376;16.744;2023-06-19T10:32:00;27.1;28.1
67893;DHT22;54688;52.376;16.744;2023-06-19T10:35:10;27;30.1
67893;DHT22;54688;52.376;16.744;2023-06-19T10:38:14;26.9;29.5
67893;DHT22;54688;52.376;16.744;2023-06-19T10:41:16;26.9;30.6
67893;DHT22;54688;52.376;16.744;2023-06-19T10:44:19;27.1;30.1
67893;DHT22;54688;52.376;16.744;2023-06-19T10:47:24;27.1;29.9
67893;DHT22;54688;52.376;16.744;2023-06-19T10:50:27;27.4;29.9
67893;DHT22;54688;52.376;16.744;2023-06-19T10:53:30;27.5;29.5
67893;DHT22;54688;52.376;16.744;2023-06-19T10:56:33;27.5;29.2
67893;DHT22;54688;52.376;16.744;2023-06-19T10:59:36;27.4;29.2
67893;DHT22;54688;52.376;16.744;2023-06-19T11:02:39;27.3;30
67893;DHT22;54688;52.376;16.744;2023-06-19T11:05:43;27.5;30.6
67893;DHT22;54688;52.376;16.744;2023-06-19T11:08:50;27.8;29.7
67893;DHT22;54688;52.376;16.744;2023-06-19T11:11:53;28;29.8
67893;DHT22;54688;52.376;16.744;2023-06-19T11:14:55;28.2;30.1
67893;DHT22;54688;52.376;16.744;2023-06-19T11:17:56;28.5;29.8
67893;DHT22;54688;52.376;16.744;2023-06-19T11:20:59;28.8;29.6
67893;DHT22;54688;52.376;16.744;2023-06-19T11:24:01;29.1;29.5
67893;DHT22;54688;52.376;16.744;2023-06-19T11:27:04;29.4;29.1
67893;DHT22;54688;52.376;16.744;2023-06-19T11:30:06;29.6;27.5
67893;DHT22;54688;52.376;16.744;2023-06-19T11:33:17;29.5;28.5
67893;DHT22;54688;52.376;16.744;2023-06-19T11:36:20;29.6;28.1
67893;DHT22;54688;52.376;16.744;2023-06-19T11:39:22;29.7;28
67893;DHT22;54688;52.376;16.744;2023-06-19T11:42:25;29.8;26.7
67893;DHT22;54688;52.376;16.744;2023-06-19T11:45:27;29.8;26.8
67893;DHT22;54688;52.376;16.744;2023-06-19T11:48:30;29.8;27
67893;DHT22;54688;52.376;16.744;2023-06-19T11:51:32;29.9;26
67893;DHT22;54688;52.376;16.744;2023-06-19T11:54:34;29.9;25.7
67893;DHT22;54688;52.376;16.744;2023-06-19T11:57:38;29.9;26.1
67893;DHT22;54688;52.376;16.744;2023-06-19T12:00:40;29.8;24.8
67893;DHT22;54688;52.376;16.744;2023-06-19T12:03:42;29.6;24.3
67893;DHT22;54688;52.376;16.744;2023-06-19T12:06:44;29.6;23.9
67893;DHT22;54688;52.376;16.744;2023-06-19T12:09:47;29.5;24.1
67893;DHT22;54688;52.376;16.744;2023-06-19T12:12:49;29.5;24.2
67893;DHT22;54688;52.376;16.744;2023-06-19T12:15:51;29.7;24.4
67893;DHT22;54688;52.376;16.744;2023-06-19T12:18:53;30.1;24.6
67893;DHT22;54688;52.376;16.744;2023-06-19T12:21:56;30.4;24.3
67893;DHT22;54688;52.376;16.744;2023-06-19T12:24:58;30.6;23.9
67893;DHT22;54688;52.376;16.744;2023-06-19T12:28:00;30.7;24.4
67893;DHT22;54688;52.376;16.744;2023-06-19T12:31:02;30.8;24.5
67893;DHT22;54688;52.376;16.744;2023-06-19T12:34:05;31.2;24.1
67893;DHT22;54688;52.376;16.744;2023-06-19T12:37:07;31.6;22.3
67893;DHT22;54688;52.376;16.744;2023-06-19T12:40:10;32.1;22.2
67893;DHT22;54688;52.376;16.744;2023-06-19T12:43:12;32.6;21.5
67893;DHT22;54688;52.376;16.744;2023-06-19T12:49:14;32.5;21.1
67893;DHT22;54688;52.376;16.744;2023-06-19T12:55:16;32.7;21.4
67893;DHT22;54688;52.376;16.744;2023-06-19T12:58:18;32.8;21.7
67893;DHT22;54688;52.376;16.744;2023-06-19T13:04:19;32.2;21.2
67893;DHT22;54688;52.376;16.744;2023-06-19T13:07:22;32;22
67893;DHT22;54688;52.376;16.744;2023-06-19T13:10:24;31.8;22.4
67893;DHT22;54688;52.376;16.744;2023-06-19T13:13:27;31.7;22.5
67893;DHT22;54688;52.376;16.744;2023-06-19T13:16:30;31.8;22.1
67893;DHT22;54688;52.376;16.744;2023-06-19T13:19:32;31.8;22.7
67893;DHT22;54688;52.376;16.744;2023-06-19T13:22:34;31.9;22.1
67893;DHT22;54688;52.376;16.744;2023-06-19T13:25:37;31.8;22
67893;DHT22;54688;52.376;16.744;2023-06-19T13:28:39;31.6;22
67893;DHT22;54688;52.376;16.744;2023-06-19T13:31:41;31.4;22.5
67893;DHT22;54688;52.376;16.744;2023-06-19T13:34:44;31.4;22.8
67893;DHT22;54688;52.376;16.744;2023-06-19T13:37:46;31.3;23.1
67893;DHT22;54688;52.376;16.744;2023-06-19T13:40:48;31.3;23.3
67893;DHT22;54688;52.376;16.744;2023-06-19T13:43:52;31.4;22.3
67893;DHT22;54688;52.376;16.744;2023-06-19T13:46:55;31.3;22.7
67893;DHT22;54688;52.376;16.744;2023-06-19T13:49:57;31.3;22.3
67893;DHT22;54688;52.376;16.744;2023-06-19T13:52:59;31.3;21.7
67893;DHT22;54688;52.376;16.744;2023-06-19T13:56:01;31.4;22.1
67893;DHT22;54688;52.376;16.744;2023-06-19T13:59:04;31.6;21.5
67893;DHT22;54688;52.376;16.744;2023-06-19T14:02:06;31.6;20.5
67893;DHT22;54688;52.376;16.744;2023-06-19T14:05:09;31.6;21.5
67893;DHT22;54688;52.376;16.744;2023-06-19T14:08:11;31.8;21.9
67893;DHT22;54688;52.376;16.744;2023-06-19T14:11:13;32.2;22.2
67893;DHT22;54688;52.376;16.744;2023-06-19T14:14:16;32.7;21.4
67893;DHT22;54688;52.376;16.744;2023-06-19T14:17:18;32.9;21.8
67893;DHT22;54688;52.376;16.744;2023-06-19T14:20:20;33.1;22
67893;DHT22;54688;52.376;16.744;2023-06-19T14:23:23;33;21.6
67893;DHT22;54688;52.376;16.744;2023-06-19T14:26:25;32.9;22
67893;DHT22;54688;52.376;16.744;2023-06-19T14:29:28;32.8;21.4
67893;DHT22;54688;52.376;16.744;2023-06-19T14:32:30;32.9;22.1
67893;DHT22;54688;52.376;16.744;2023-06-19T14:35:33;33.1;21.9
67893;DHT22;54688;52.376;16.744;2023-06-19T14:38:34;33;22
67893;DHT22;54688;52.376;16.744;2023-06-19T14:44:36;33;21.9
67893;DHT22;54688;52.376;16.744;2023-06-19T14:47:38;33.1;22.3
67893;DHT22;54688;52.376;16.744;2023-06-19T14:50:41;33.5;21.9
67893;DHT22;54688;52.376;16.744;2023-06-19T14:53:43;33.6;21.4
67893;DHT22;54688;52.376;16.744;2023-06-19T14:56:45;33.5;21.2
67893;DHT22;54688;52.376;16.744;2023-06-19T14:59:47;33.1;21.8
67893;DHT22;54688;52.376;16.744;2023-06-19T15:02:50;32.8;22.1
67893;DHT22;54688;52.376;16.744;2023-06-19T15:05:53;32.7;21.3
67893;DHT22;54688;52.376;16.744;2023-06-19T15:08:58;32.4;21.7
67893;DHT22;54688;52.376;16.744;2023-06-19T15:12:01;32.1;22.4
67893;DHT22;54688;52.376;16.744;2023-06-19T15:15:03;32;22.2
67893;DHT22;54688;52.376;16.744;2023-06-19T15:18:06;31.8;22.4
67893;DHT22;54688;52.376;16.744;2023-06-19T15:21:08;31.5;22.3
67893;DHT22;54688;52.376;16.744;2023-06-19T15:24:12;31.2;22.8
67893;DHT22;54688;52.376;16.744;2023-06-19T15:27:14;30.9;22.8
67893;DHT22;54688;52.376;16.744;2023-06-19T15:30:16;30.5;23
67893;DHT22;54688;52.376;16.744;2023-06-19T15:33:19;30.2;23.4
67893;DHT22;54688;52.376;16.744;2023-06-19T15:36:21;29.9;23.4
67893;DHT22;54688;52.376;16.744;2023-06-19T15:39:23;29.7;23.8
67893;DHT22;54688;52.376;16.744;2023-06-19T15:42:25;29.5;23.8
67893;DHT22;54688;52.376;16.744;2023-06-19T15:45:27;29.5;23.1
67893;DHT22;54688;52.376;16.744;2023-06-19T15:48:29;29.5;24
67893;DHT22;54688;52.376;16.744;2023-06-19T15:51:31;29.4;23.9
67893;DHT22;54688;52.376;16.744;2023-06-19T15:54:33;29.4;23.8
67893;DHT22;54688;52.376;16.744;2023-06-19T15:57:35;29.3;23.7
67893;DHT22;54688;52.376;16.744;2023-06-19T16:00:37;29.3;23.7
67893;DHT22;54688;52.376;16.744;2023-06-19T16:03:39;29.3;24.2
67893;DHT22;54688;52.376;16.744;2023-06-19T16:06:41;29.3;24.1
67893;DHT22;54688;52.376;16.744;2023-06-19T16:09:44;29.4;24.2
67893;DHT22;54688;52.376;16.744;2023-06-19T16:12:45;29.3;23.9
67893;DHT22;54688;52.376;16.744;2023-06-19T16:15:48;29.4;24.5
67893;DHT22;54688;52.376;16.744;2023-06-19T16:18:50;29.3;24.6
67893;DHT22;54688;52.376;16.744;2023-06-19T16:21:52;29.2;24.5
67893;DHT22;54688;52.376;16.744;2023-06-19T16:24:55;29;24.5
67893;DHT22;54688;52.376;16.744;2023-06-19T16:27:57;28.9;24.8
67893;DHT22;54688;52.376;16.744;2023-06-19T16:31:00;28.7;25.1
67893;DHT22;54688;52.376;16.744;2023-06-19T16:37:02;28.4;25.6
67893;DHT22;54688;52.376;16.744;2023-06-19T16:40:05;28.2;26.1
67893;DHT22;54688;52.376;16.744;2023-06-19T16:43:08;28.1;26.1
67893;DHT22;54688;52.376;16.744;2023-06-19T16:46:11;28;26.2
67893;DHT22;54688;52.376;16.744;2023-06-19T16:49:13;27.9;26.3
67893;DHT22;54688;52.376;16.744;2023-06-19T16:52:16;27.8;26.7
67893;DHT22;54688;52.376;16.744;2023-06-19T16:55:18;27.8;26.7
67893;DHT22;54688;52.376;16.744;2023-06-19T16:58:20;27.8;26.9
67893;DHT22;54688;52.376;16.744;2023-06-19T17:01:22;27.8;27
67893;DHT22;54688;52.376;16.744;2023-06-19T17:04:25;27.7;27.3
67893;DHT22;54688;52.376;16.744;2023-06-19T17:07:27;27.7;27.5
67893;DHT22;54688;52.376;16.744;2023-06-19T17:10:29;27.7;27.3
67893;DHT22;54688;52.376;16.744;2023-06-19T17:13:31;27.8;27.3
67893;DHT22;54688;52.376;16.744;2023-06-19T17:16:34;27.8;27.2
67893;DHT22;54688;52.376;16.744;2023-06-19T17:19:36;27.9;27.6
67893;DHT22;54688;52.376;16.744;2023-06-19T17:22:38;28.1;27.2
67893;DHT22;54688;52.376;16.744;2023-06-19T17:25:40;28.4;26.6
67893;DHT22;54688;52.376;16.744;2023-06-19T17:28:42;28.7;26.7
67893;DHT22;54688;52.376;16.744;2023-06-19T17:31:44;28.9;26.6
67893;DHT22;54688;52.376;16.744;2023-06-19T17:34:47;29;26.3
67893;DHT22;54688;52.376;16.744;2023-06-19T17:37:49;28.9;26
67893;DHT22;54688;52.376;16.744;2023-06-19T17:40:51;28.8;26.1
67893;DHT22;54688;52.376;16.744;2023-06-19T17:43:54;28.6;26.3
67893;DHT22;54688;52.376;16.744;2023-06-19T17:46:55;28.3;26.8
67893;DHT22;54688;52.376;16.744;2023-06-19T17:49:58;28.1;26.7
67893;DHT22;54688;52.376;16.744;2023-06-19T17:53:00;27.9;27
67893;DHT22;54688;52.376;16.744;2023-06-19T17:56:02;27.7;27.5
67893;DHT22;54688;52.376;16.744;2023-06-19T17:59:05;27.5;27.3
67893;DHT22;54688;52.376;16.744;2023-06-19T18:02:07;27.3;27.8
67893;DHT22;54688;52.376;16.744;2023-06-19T18:05:08;27.1;28.1
67893;DHT22;54688;52.376;16.744;2023-06-19T18:08:11;27;28.2
67893;DHT22;54688;52.376;16.744;2023-06-19T18:11:13;26.9;28.7
67893;DHT22;54688;52.376;16.744;2023-06-19T18:14:15;26.8;29.1
67893;DHT22;54688;52.376;16.744;2023-06-19T18:17:17;26.7;29.5
67893;DHT22;54688;52.376;16.744;2023-06-19T18:20:19;26.8;30
67893;DHT22;54688;52.376;16.744;2023-06-19T18:23:21;26.7;30
67893;DHT22;54688;52.376;16.744;2023-06-19T18:26:23;26.6;30
67893;DHT22;54688;52.376;16.744;2023-06-19T18:29:24;26.5;30.4
67893;DHT22;54688;52.376;16.744;2023-06-19T18:32:26;26.5;31
67893;DHT22;54688;52.376;16.744;2023-06-19T18:35:28;26.4;31.1
67893;DHT22;54688;52.376;16.744;2023-06-19T18:38:30;26.3;31.4
67893;DHT22;54688;52.376;16.744;2023-06-19T18:41:32;26.2;31.7
67893;DHT22;54688;52.376;16.744;2023-06-19T18:44:34;26.1;31.9
67893;DHT22;54688;52.376;16.744;2023-06-19T18:47:36;25.9;32.2
67893;DHT22;54688;52.376;16.744;2023-06-19T18:50:38;25.8;32.4
67893;DHT22;54688;52.376;16.744;2023-06-19T18:53:40;25.7;32.7
67893;DHT22;54688;52.376;16.744;2023-06-19T18:56:42;25.5;33.3
67893;DHT22;54688;52.376;16.744;2023-06-19T18:59:44;25.4;33.8
67893;DHT22;54688;52.376;16.744;2023-06-19T19:02:46;25.2;34.1
67893;DHT22;54688;52.376;16.744;2023-06-19T19:05:48;25;34.5
67893;DHT22;54688;52.376;16.744;2023-06-19T19:08:51;24.9;35
67893;DHT22;54688;52.376;16.744;2023-06-19T19:11:53;24.7;35.3
67893;DHT22;54688;52.376;16.744;2023-06-19T19:14:55;24.6;35.5
67893;DHT22;54688;52.376;16.744;2023-06-19T19:17:58;24.4;35.5
67893;DHT22;54688;52.376;16.744;2023-06-19T19:20:59;24.3;35.9
67893;DHT22;54688;52.376;16.744;2023-06-19T19:24:01;24.2;36.3
67893;DHT22;54688;52.376;16.744;2023-06-19T19:27:04;24;36.6
67893;DHT22;54688;52.376;16.744;2023-06-19T19:30:07;23.9;36.9
67893;DHT22;54688;52.376;16.744;2023-06-19T19:33:10;23.7;37.2
67893;DHT22;54688;52.376;16.744;2023-06-19T19:36:11;23.6;37.3
67893;DHT22;54688;52.376;16.744;2023-06-19T19:39:13;23.5;37.2
67893;DHT22;54688;52.376;16.744;2023-06-19T19:42:15;23.5;38.1
67893;DHT22;54688;52.376;16.744;2023-06-19T19:45:17;23.5;37.5
67893;DHT22;54688;52.376;16.744;2023-06-19T19:48:19;23.4;38
67893;DHT22;54688;52.376;16.744;2023-06-19T19:51:21;23.3;38.5
67893;DHT22;54688;52.376;16.744;2023-06-19T19:54:23;23.2;38.5
67893;DHT22;54688;52.376;16.744;2023-06-19T19:57:25;23.2;38.6
67893;DHT22;54688;52.376;16.744;2023-06-19T20:00:27;23.1;38.6